Time;durP1;ratioP1;P1;durP2;ratioP2;P2;SDS_P1;SDS_P2;PMS_P1;PMS_P2;Temp;Humidity;BMP_temperature;BMP_pressure;BME280_temperature;BME280_humidity;BME280_pressure;Samples;Min_cycle;Max_cycle;Signal;HPM_P1;HPM_P2
2021/12/19 00:01:55;;;;;;;36.75;22.05;;;;;;;3.00;75.67;102776.97;4989873;28;20471;-63
2021/12/19 00:09:29;;;;;;;36.65;21.58;;;;;;;3.05;75.58;102761.47;4991774;28;20050;-63
2021/12/19 00:11:57;;;;;;;34.88;21.23;;;;;;;3.02;75.79;102762.31;4992731;28;20050;-62
2021/12/19 00:14:23;;;;;;;36.80;22.35;;;;;;;3.07;75.72;102758.03;4992244;28;20049;-65
2021/12/19 00:16:51;;;;;;;39.30;20.60;;;;;;;3.03;75.59;102756.25;4992499;28;20056;-63
2021/12/19 00:19:18;;;;;;;39.63;20.48;;;;;;;2.94;75.58;102757.03;4991155;28;20494;-62
2021/12/19 00:21:45;;;;;;;43.20;20.38;;;;;;;2.91;76.35;102748.38;4991554;28;20042;-63
2021/12/19 00:24:12;;;;;;;35.17;19.10;;;;;;;2.84;76.28;102737.06;4992441;28;20442;-63
2021/12/19 00:26:39;;;;;;;43.33;20.73;;;;;;;2.86;76.52;102734.53;4992376;28;20487;-63
2021/12/19 00:29:06;;;;;;;40.75;20.73;;;;;;;2.85;76.56;102728.44;4992196;28;20510;-64
2021/12/19 00:31:33;;;;;;;35.67;20.17;;;;;;;2.89;76.75;102727.59;4998105;28;20051;-63
2021/12/19 00:34:00;;;;;;;41.28;21.08;;;;;;;2.91;76.68;102725.91;4996153;28;20057;-67
2021/12/19 00:36:27;;;;;;;41.90;19.70;;;;;;;2.96;76.33;102728.53;4995877;28;20050;-64
2021/12/19 00:38:54;;;;;;;35.03;21.15;;;;;;;2.93;76.75;102715.53;4995167;28;20061;-64
2021/12/19 00:41:21;;;;;;;36.97;19.63;;;;;;;2.98;76.43;102713.84;4996046;28;20042;-63
2021/12/19 00:43:55;;;;;;;33.88;20.63;;;;;;;2.94;76.79;102714.69;4994987;28;20053;-63
2021/12/19 00:46:25;;;;;;;35.08;20.90;;;;;;;2.94;76.91;102707.75;4995514;28;20105;-62
2021/12/19 00:48:54;;;;;;;41.10;20.73;;;;;;;2.97;76.54;102696.56;4995938;28;20054;-63
2021/12/19 00:51:24;;;;;;;37.47;21.42;;;;;;;3.00;76.81;102695.72;4995874;28;20051;-63
2021/12/19 00:53:53;;;;;;;32.95;21.10;;;;;;;3.03;76.82;102695.72;4994956;28;20069;-63
2021/12/19 00:56:21;;;;;;;37.88;20.35;;;;;;;3.04;76.72;102700.06;4995757;28;20077;-63
2021/12/19 00:58:49;;;;;;;34.97;19.85;;;;;;;3.05;76.89;102694.03;4995634;28;20392;-67
2021/12/19 01:01:17;;;;;;;40.30;21.25;;;;;;;3.06;76.83;102698.31;4995957;28;20042;-65
2021/12/19 01:03:46;;;;;;;35.42;20.13;;;;;;;3.05;76.81;102696.63;4995726;28;20054;-64
2021/12/19 01:06:17;;;;;;;41.40;19.80;;;;;;;2.97;77.28;102695.69;4995790;28;20447;-64
2021/12/19 01:08:44;;;;;;;35.97;20.27;;;;;;;2.98;76.91;102702.59;4993193;28;20054;-64
2021/12/19 01:11:11;;;;;;;36.00;19.92;;;;;;;2.99;76.89;102700.03;4991489;28;20042;-67
2021/12/19 01:13:38;;;;;;;39.60;19.50;;;;;;;3.01;77.12;102694.84;4991755;28;20050;-63
2021/12/19 01:16:04;;;;;;;29.10;18.65;;;;;;;3.06;76.96;102694.03;4992111;28;20627;-64
2021/12/19 01:18:32;;;;;;;29.83;19.02;;;;;;;3.05;76.82;102689.69;4991872;28;20388;-64
2021/12/19 01:20:59;;;;;;;34.25;18.83;;;;;;;3.04;76.94;102693.13;4992033;28;20080;-64
2021/12/19 01:23:26;;;;;;;37.40;19.13;;;;;;;3.03;76.90;102688.81;4992130;28;20414;-64
2021/12/19 01:25:52;;;;;;;33.53;19.33;;;;;;;2.94;77.28;102689.59;4992073;28;20050;-65
2021/12/19 01:28:19;;;;;;;30.98;19.60;;;;;;;2.93;77.22;102687.91;4990887;28;20418;-66
2021/12/19 01:30:46;;;;;;;32.22;18.88;;;;;;;2.96;77.25;102680.97;4992182;28;20384;-63
2021/12/19 01:33:13;;;;;;;33.70;18.90;;;;;;;2.88;77.23;102683.53;4992235;28;20038;-63
2021/12/19 01:35:40;;;;;;;42.38;19.17;;;;;;;2.80;77.31;102682.63;4991091;28;20050;-67
2021/12/19 01:38:07;;;;;;;41.78;18.75;;;;;;;2.81;77.35;102694.72;4991692;28;20062;-64
2021/12/19 01:40:33;;;;;;;35.30;18.60;;;;;;;2.85;77.15;102688.69;4991424;28;20549;-67
2021/12/19 01:43:00;;;;;;;39.10;18.45;;;;;;;2.84;77.29;102693.00;4993259;28;20046;-63
2021/12/19 01:45:36;;;;;;;30.25;18.52;;;;;;;2.86;77.21;102686.09;4993742;28;20056;-63
2021/12/19 01:48:05;;;;;;;;;;;;;;;2.83;77.34;102680.91;4994899;28;20046;-63
2021/12/19 01:50:33;;;;;;;30.83;17.92;;;;;;;2.87;77.05;102682.66;4994865;28;19986;-63
2021/12/19 01:53:02;;;;;;;33.63;18.95;;;;;;;2.81;77.37;102679.16;4994652;28;20558;-66
2021/12/19 01:55:28;;;;;;;39.00;18.30;;;;;;;2.79;77.25;102676.53;4994656;28;20101;-63
2021/12/19 01:57:55;;;;;;;36.88;20.70;;;;;;;2.80;77.26;102672.25;4994769;28;20046;-64
2021/12/19 02:00:23;;;;;;;32.83;18.65;;;;;;;2.81;77.09;102671.41;4994698;28;20054;-63
2021/12/19 02:02:51;;;;;;;39.35;19.80;;;;;;;2.88;77.26;102674.03;4993872;28;20093;-63
2021/12/19 02:05:18;;;;;;;35.15;19.13;;;;;;;2.92;77.02;102672.31;4993624;28;20130;-64
2021/12/19 02:07:48;;;;;;;44.38;19.88;;;;;;;2.99;77.01;102675.81;4994549;28;20080;-63
2021/12/19 02:10:27;;;;;;;41.08;20.50;;;;;;;3.01;76.95;102666.31;4994523;28;20046;-66
2021/12/19 02:12:56;;;;;;;33.55;19.75;;;;;;;3.06;76.98;102672.38;4994199;28;20046;-63
2021/12/19 02:15:24;;;;;;;34.47;19.45;;;;;;;3.09;76.83;102669.84;4994203;28;20042;-63
2021/12/19 02:17:54;;;;;;;33.85;19.33;;;;;;;3.10;76.83;102659.47;4994203;28;20069;-67
2021/12/19 02:20:22;;;;;;;34.17;19.13;;;;;;;3.13;76.67;102658.59;4994243;28;20046;-63
2021/12/19 02:22:49;;;;;;;30.08;18.15;;;;;;;3.13;76.67;102652.56;4993204;28;20113;-67
2021/12/19 02:25:16;;;;;;;32.25;19.40;;;;;;;3.15;76.62;102651.72;4994134;28;20501;-63
2021/12/19 02:27:43;;;;;;;39.30;20.02;;;;;;;3.17;76.46;102652.56;4994017;28;20038;-66
2021/12/19 02:30:12;;;;;;;34.42;19.38;;;;;;;3.17;76.53;102644.78;4993948;28;20050;-63
2021/12/19 02:32:41;;;;;;;33.67;20.08;;;;;;;3.21;76.67;102641.38;4994114;28;20053;-64
2021/12/19 02:35:16;;;;;;;35.20;18.80;;;;;;;3.20;76.46;102642.22;4993802;28;20046;-63
2021/12/19 02:38:08;;;;;;;37.53;19.60;;;;;;;3.20;76.57;102642.22;4986629;28;20521;-66
2021/12/19 02:48:10;;;;;;;34.15;18.67;;;;;;;3.15;76.32;102643.03;4993643;28;20499;-65
2021/12/19 02:49:05;;;;;;;35.78;19.92;;;;;;;3.14;76.54;102621.44;4993531;28;20113;-64
2021/12/19 02:51:34;;;;;;;31.80;19.45;;;;;;;3.15;76.45;102618.00;4993636;28;20042;-65
2021/12/19 02:54:03;;;;;;;44.75;20.20;;;;;;;3.14;76.59;102613.66;4992077;28;20053;-63
2021/12/19 02:56:30;;;;;;;40.95;19.23;;;;;;;3.07;76.43;102604.09;4993634;28;20045;-66
2021/12/19 02:58:56;;;;;;;41.20;20.05;;;;;;;3.04;76.70;102614.47;4993280;28;20483;-64
2021/12/19 03:01:24;;;;;;;32.47;19.23;;;;;;;3.04;76.75;102604.09;4993852;28;20038;-64
2021/12/19 03:03:50;;;;;;;33.33;18.95;;;;;;;3.00;76.40;102607.53;4993292;28;20491;-64
2021/12/19 03:06:17;;;;;;;39.33;19.15;;;;;;;3.04;76.60;102604.97;4993488;28;20047;-63
2021/12/19 03:08:47;;;;;;;31.70;18.77;;;;;;;3.03;76.49;102592.00;4993335;28;20097;-63
2021/12/19 03:19:24;;;;;;;34.42;18.75;;;;;;;3.00;76.10;102585.06;4993142;28;20047;-67
2021/12/19 03:21:51;;;;;;;30.60;19.10;;;;;;;2.98;76.18;102588.50;4993204;28;20065;-63
2021/12/19 03:24:17;;;;;;;37.20;19.98;;;;;;;2.98;76.27;102591.09;4993234;28;20050;-62
2021/12/19 03:26:44;;;;;;;33.63;19.42;;;;;;;3.00;76.40;102592.84;4992263;28;20042;-67
2021/12/19 03:29:11;;;;;;;34.63;19.73;;;;;;;3.02;76.15;102591.13;4992921;28;20047;-64
2021/12/19 03:31:37;;;;;;;33.28;18.63;;;;;;;3.00;76.15;102585.06;4993085;28;20052;-66
2021/12/19 03:34:04;;;;;;;34.17;18.30;;;;;;;2.96;76.12;102593.69;4993162;28;20053;-63
2021/12/19 03:36:31;;;;;;;40.47;19.00;;;;;;;2.91;76.59;102592.81;4992937;28;20061;-66
2021/12/19 03:39:01;;;;;;;35.88;18.73;;;;;;;2.87;76.49;102585.84;4992911;28;20054;-64
2021/12/19 03:41:34;;;;;;;34.25;17.13;;;;;;;2.89;76.41;102579.81;4992911;28;20043;-65
2021/12/19 03:44:03;;;;;;;38.55;19.08;;;;;;;2.89;76.48;102578.94;4991766;28;20053;-64
2021/12/19 03:46:30;;;;;;;32.38;18.73;;;;;;;2.86;75.89;102566.84;4992785;28;20517;-63
2021/12/19 03:48:57;;;;;;;30.00;19.83;;;;;;;2.87;76.57;102563.38;4992798;28;20046;-68
2021/12/19 03:51:24;;;;;;;29.73;18.63;;;;;;;2.79;76.39;102567.66;4992806;28;20511;-67
2021/12/19 03:53:51;;;;;;;39.00;17.90;;;;;;;2.72;76.17;102577.13;4992821;28;20073;-63
2021/12/19 03:56:17;;;;;;;51.90;19.83;;;;;;;2.72;76.39;102568.50;4992929;28;20065;-63
2021/12/19 03:58:44;;;;;;;40.95;19.45;;;;;;;2.70;76.43;102575.38;4992729;28;20053;-64
2021/12/19 04:01:11;;;;;;;35.42;18.73;;;;;;;2.71;76.57;102570.22;4991796;28;20054;-64
2021/12/19 04:03:38;;;;;;;29.73;18.85;;;;;;;2.74;76.32;102566.75;4988685;28;20046;-64
2021/12/19 04:06:06;;;;;;;40.97;18.42;;;;;;;2.68;76.32;102562.44;4992276;28;20705;-65
2021/12/19 04:08:32;;;;;;;31.30;18.10;;;;;;;2.68;76.31;102570.22;4993414;28;20046;-67
2021/12/19 04:10:59;;;;;;;28.73;18.17;;;;;;;2.75;76.12;102564.19;4993510;28;20058;-67
2021/12/19 04:13:26;;;;;;;35.47;19.17;;;;;;;2.71;75.86;102561.56;4993123;28;20042;-64
2021/12/19 04:15:53;;;;;;;30.13;18.25;;;;;;;2.70;76.16;102558.09;4992103;28;20054;-63
2021/12/19 04:18:20;;;;;;;36.70;18.90;;;;;;;2.67;76.09;102558.09;4993510;28;20454;-64
2021/12/19 04:20:47;;;;;;;33.65;17.55;;;;;;;2.63;75.92;102556.34;4993345;28;20054;-63
2021/12/19 04:23:14;;;;;;;27.30;16.08;;;;;;;2.65;75.78;102553.75;4993402;28;20096;-64
2021/12/19 04:25:41;;;;;;;30.90;17.33;;;;;;;2.59;76.12;102557.16;4993460;28;20494;-64
2021/12/19 04:28:08;;;;;;;28.70;17.95;;;;;;;2.55;76.20;102558.00;4993165;28;20554;-64
2021/12/19 04:30:35;;;;;;;26.13;17.10;;;;;;;2.59;76.29;102563.25;4992875;28;20050;-64
2021/12/19 04:33:09;;;;;;;25.50;16.58;;;;;;;2.63;75.88;102552.88;4991733;28;20054;-64
2021/12/19 04:35:39;;;;;;;25.80;15.65;;;;;;;2.65;75.78;102554.63;4992653;28;20054;-64
2021/12/19 04:41:15;;;;;;;31.27;17.88;;;;;;;2.68;75.68;102549.47;4992707;28;20054;-66
2021/12/19 04:57:06;;;;;;;29.20;17.75;;;;;;;2.58;75.69;102512.25;4992655;28;20062;-64
2021/12/19 05:15:51;;;;;;;27.48;14.98;;;;;;;2.66;75.20;102519.22;4991819;28;20046;-64
2021/12/19 05:18:20;;;;;;;25.80;16.45;;;;;;;2.70;75.18;102520.97;4992398;28;20046;-67
2021/12/19 05:20:58;;;;;;;27.25;16.17;;;;;;;2.71;74.86;102518.38;4992313;28;20053;-64
2021/12/19 05:23:48;;;;;;;25.98;15.93;;;;;;;2.70;75.02;102508.84;4990928;28;20042;-64
2021/12/19 05:26:14;;;;;;;31.17;15.68;;;;;;;2.72;75.08;102509.72;4991997;28;20495;-63
2021/12/19 05:28:41;;;;;;;22.65;15.25;;;;;;;2.75;74.95;102503.69;4992230;28;20077;-64
2021/12/19 05:31:08;;;;;;;23.50;15.63;;;;;;;2.75;74.90;102514.06;4991713;28;20084;-65
2021/12/19 05:33:35;;;;;;;37.38;16.90;;;;;;;2.72;74.91;102506.28;4991964;28;20105;-66
2021/12/19 05:46:39;;;;;;;33.92;16.58;;;;;;;2.74;74.90;102468.25;4991666;28;20462;-64
2021/12/19 05:49:07;;;;;;;27.75;16.27;;;;;;;2.72;74.84;102473.44;4991736;28;20069;-64
2021/12/19 05:51:38;;;;;;;33.38;16.52;;;;;;;2.68;74.63;102470.81;4991172;28;20062;-63
2021/12/19 05:54:06;;;;;;;27.65;17.02;;;;;;;2.67;74.98;102469.97;4991467;28;20082;-63
2021/12/19 05:56:39;;;;;;;29.25;16.02;;;;;;;2.75;74.42;102467.41;4990379;28;20077;-63
2021/12/19 05:59:08;;;;;;;27.27;16.83;;;;;;;2.75;74.61;102472.59;4991319;28;20042;-64
2021/12/19 06:01:38;;;;;;;26.23;16.15;;;;;;;2.73;74.55;102470.00;4991456;28;20049;-64
2021/12/19 06:04:05;;;;;;;27.55;16.38;;;;;;;2.76;74.63;102472.59;4991313;28;20600;-68
2021/12/19 06:06:38;;;;;;;23.45;15.75;;;;;;;2.78;74.40;102468.28;4991128;28;20078;-62
2021/12/19 06:09:10;;;;;;;25.75;15.80;;;;;;;2.77;74.70;102465.69;4990806;28;20054;-64
2021/12/19 06:11:36;;;;;;;28.58;17.08;;;;;;;2.78;74.59;102467.41;4990607;28;20046;-64
2021/12/19 06:14:03;;;;;;;28.10;16.40;;;;;;;2.74;74.43;102465.66;4990979;28;20043;-63
2021/12/19 06:16:30;;;;;;;25.88;15.77;;;;;;;2.75;74.21;102463.06;4991060;28;20214;-65
2021/12/19 06:18:57;;;;;;;26.02;15.40;;;;;;;2.75;74.57;102452.69;4991125;28;20046;-64
2021/12/19 06:21:24;;;;;;;22.13;14.27;;;;;;;2.73;74.52;102459.63;4990859;28;20057;-63
2021/12/19 06:23:51;;;;;;;19.27;13.68;;;;;;;2.75;74.35;102450.13;4982368;28;20056;-64
2021/12/19 06:26:17;;;;;;;24.63;15.45;;;;;;;2.67;74.55;102446.63;4991004;28;20038;-64
2021/12/19 06:28:44;;;;;;;24.67;15.30;;;;;;;2.69;74.45;102441.47;4989030;28;20076;-67
2021/12/19 06:31:11;;;;;;;23.52;15.52;;;;;;;2.69;74.43;102441.47;4990859;28;20058;-63
2021/12/19 06:33:38;;;;;;;21.58;14.45;;;;;;;2.66;74.50;102441.47;4990377;28;20047;-66
2021/12/19 06:36:05;;;;;;;23.85;16.02;;;;;;;2.69;74.32;102437.16;4990574;28;20136;-65
2021/12/19 06:38:32;;;;;;;28.65;14.77;;;;;;;2.71;74.07;102435.41;4990798;28;20050;-69
2021/12/19 06:40:59;;;;;;;27.48;16.17;;;;;;;2.69;74.44;102421.59;4990437;28;20077;-66
2021/12/19 06:43:26;;;;;;;32.53;16.27;;;;;;;2.64;74.08;102428.50;4989325;28;20046;-67
2021/12/19 06:45:55;;;;;;;24.45;15.90;;;;;;;2.71;74.47;102427.63;4990346;28;20049;-66
2021/12/19 06:48:24;;;;;;;23.63;16.33;;;;;;;2.67;74.21;102428.50;4990846;28;20039;-69
2021/12/19 06:50:52;;;;;;;27.17;16.60;;;;;;;2.69;74.11;102431.97;4990141;28;20057;-66
2021/12/19 06:53:19;;;;;;;33.13;16.42;;;;;;;2.64;74.09;102433.69;4990580;28;20046;-67
2021/12/19 06:55:46;;;;;;;31.52;16.23;;;;;;;2.64;74.31;102436.28;4990312;28;20063;-65
2021/12/19 06:58:12;;;;;;;28.73;15.75;;;;;;;2.61;74.22;102431.06;4990336;28;20049;-66
2021/12/19 07:00:39;;;;;;;28.17;15.48;;;;;;;2.59;74.23;102431.06;4989249;28;20057;-65
2021/12/19 07:03:06;;;;;;;32.70;16.50;;;;;;;2.52;74.33;102412.91;4990394;28;20104;-65
2021/12/19 07:05:33;;;;;;;25.58;15.82;;;;;;;2.45;74.60;102418.06;4990299;28;20046;-65
2021/12/19 07:08:00;;;;;;;24.83;15.52;;;;;;;2.48;74.31;102413.75;4990280;28;20538;-68
2021/12/19 07:10:26;;;;;;;22.88;14.68;;;;;;;2.51;74.28;102411.16;4990226;28;20050;-65
2021/12/19 07:12:53;;;;;;;23.33;14.32;;;;;;;2.49;74.34;102413.75;4990014;28;20046;-65
2021/12/19 07:15:20;;;;;;;22.45;14.63;;;;;;;2.56;74.16;102422.41;4990303;28;20046;-66
2021/12/19 07:17:48;;;;;;;27.38;15.00;;;;;;;2.55;74.03;102416.38;4988998;28;20053;-67
2021/12/19 07:20:15;;;;;;;23.45;15.48;;;;;;;2.55;73.91;102407.72;4990119;28;20046;-65
2021/12/19 07:22:41;;;;;;;32.65;14.63;;;;;;;2.55;73.84;102412.91;4989556;28;20058;-64
2021/12/19 07:25:09;;;;;;;24.75;15.10;;;;;;;2.57;73.85;102400.81;4990252;28;20052;-66
2021/12/19 07:27:36;;;;;;;21.52;14.63;;;;;;;2.50;74.10;102412.00;4989918;28;20050;-68
2021/12/19 07:30:05;;;;;;;31.50;15.50;;;;;;;2.44;74.27;102412.88;4976298;28;20116;-65
2021/12/19 07:32:33;;;;;;;31.98;15.60;;;;;;;2.48;73.79;102412.00;4989999;28;20054;-67
2021/12/19 07:35:19;;;;;;;27.95;15.77;;;;;;;2.53;73.75;102402.53;4988725;28;20050;-65
2021/12/19 07:37:48;;;;;;;28.23;16.20;;;;;;;2.53;73.86;102404.28;4989630;28;20062;-65
2021/12/19 07:40:17;;;;;;;29.45;15.95;;;;;;;2.52;73.80;102387.84;4989687;28;20050;-65
2021/12/19 07:42:44;;;;;;;23.15;14.52;;;;;;;2.53;73.58;102391.31;4989675;28;20058;-68
2021/12/19 07:45:13;;;;;;;21.92;14.43;;;;;;;2.47;73.98;102394.72;4989350;28;20038;-65
2021/12/19 07:47:41;;;;;;;24.85;15.60;;;;;;;2.53;73.54;102396.50;4989646;28;20088;-65
2021/12/19 07:50:09;;;;;;;22.60;13.60;;;;;;;2.54;73.77;102399.09;4988453;28;20548;-65
2021/12/19 07:52:36;;;;;;;25.92;15.02;;;;;;;2.50;73.67;102399.06;4989216;28;20108;-65
2021/12/19 07:55:06;;;;;;;22.15;15.15;;;;;;;2.43;74.28;102390.41;4989450;28;20042;-66
2021/12/19 07:57:33;;;;;;;23.23;14.75;;;;;;;2.47;73.98;102386.09;4989543;28;20043;-64
2021/12/19 08:00:00;;;;;;;25.77;15.35;;;;;;;2.50;73.74;102386.09;4989477;28;20050;-65
2021/12/19 08:02:27;;;;;;;26.35;15.05;;;;;;;2.45;73.70;102389.53;4989276;28;20046;-65
2021/12/19 08:04:54;;;;;;;27.02;15.48;;;;;;;2.48;73.95;102385.25;4989254;28;20085;-65
2021/12/19 08:07:23;;;;;;;24.98;15.68;;;;;;;2.43;73.40;102386.06;4988106;28;20066;-67
2021/12/19 08:12:37;;;;;;;33.00;17.45;;;;;;;2.52;73.61;102376.63;4989207;28;20069;-65
2021/12/19 08:15:05;;;;;;;30.02;16.85;;;;;;;2.57;73.58;102380.09;4989170;28;20054;-65
2021/12/19 08:17:32;;;;;;;27.40;15.32;;;;;;;2.49;73.40;102377.47;4989157;28;20087;-65
2021/12/19 08:20:01;;;;;;;28.55;16.50;;;;;;;2.48;73.61;102364.53;4989367;28;20565;-65
2021/12/19 08:22:29;;;;;;;32.22;16.25;;;;;;;2.47;73.45;102361.03;4989253;28;20054;-64
2021/12/19 08:24:57;;;;;;;27.95;16.00;;;;;;;2.51;73.59;102359.34;4988175;28;20066;-65
2021/12/19 08:27:25;;;;;;;27.77;16.90;;;;;;;2.51;73.51;102356.75;4988074;28;20134;-65
2021/12/19 08:29:54;;;;;;;62.97;40.22;;;;;;;2.53;73.33;102357.63;4989063;28;20503;-64
2021/12/19 08:32:24;;;;;;;170.75;94.88;;;;;;;2.53;73.39;102353.28;4989150;28;20065;-65
2021/12/19 08:34:51;;;;;;;330.25;145.43;;;;;;;2.55;73.76;102356.78;4991030;28;20062;-60
2021/12/19 08:37:18;;;;;;;117.30;64.47;;;;;;;2.62;73.34;102357.63;5006924;28;20052;-60
2021/12/19 08:39:46;;;;;;;59.70;36.53;;;;;;;2.66;73.43;102356.78;5006998;28;20041;-60
2021/12/19 08:42:13;;;;;;;43.42;24.75;;;;;;;2.64;73.68;102355.03;5002642;28;20116;-62
2021/12/19 08:44:40;;;;;;;43.33;25.63;;;;;;;2.67;73.38;102345.56;4999481;28;20093;-58
2021/12/19 08:47:07;;;;;;;39.70;24.15;;;;;;;2.69;73.85;102354.22;4988928;28;20050;-58
2021/12/19 08:49:34;;;;;;;37.58;21.17;;;;;;;2.77;73.20;102339.53;4996694;28;20445;-58
2021/12/19 08:52:03;;;;;;;45.53;24.90;;;;;;;2.81;73.24;102342.13;5007195;28;20050;-60
2021/12/19 08:54:30;;;;;;;47.92;28.52;;;;;;;2.79;72.99;102334.34;5011028;28;20046;-60
2021/12/19 08:56:57;;;;;;;62.67;36.58;;;;;;;2.82;73.46;102336.06;5006417;28;20066;-58
2021/12/19 08:59:26;;;;;;;54.30;31.48;;;;;;;2.84;73.40;102337.81;5005558;28;20104;-58
2021/12/19 09:01:54;;;;;;;43.58;23.10;;;;;;;2.82;73.16;102338.66;5010269;28;20049;-58
2021/12/19 09:04:21;;;;;;;55.08;30.20;;;;;;;2.80;73.14;102330.88;5009956;28;20046;-60
2021/12/19 09:06:47;;;;;;;49.08;31.92;;;;;;;2.81;73.26;102330.03;5001194;28;20054;-61
2021/12/19 09:09:14;;;;;;;53.95;33.53;;;;;;;2.77;73.49;102333.50;4992592;28;20050;-60
2021/12/19 09:11:42;;;;;;;39.72;25.77;;;;;;;2.76;73.63;102324.81;4992081;28;20047;-58
2021/12/19 09:14:08;;;;;;;36.45;23.20;;;;;;;2.83;73.30;102332.63;4996394;28;20050;-60
2021/12/19 09:16:35;;;;;;;28.45;17.20;;;;;;;2.82;73.42;102336.06;4991110;28;20042;-61
2021/12/19 09:19:12;;;;;;;35.35;18.17;;;;;;;2.82;73.38;102339.53;4997821;28;20077;-60
2021/12/19 09:21:40;;;;;;;44.05;24.60;;;;;;;2.82;73.14;102338.66;4992256;28;20149;-60
2021/12/19 09:24:07;;;;;;;46.10;26.80;;;;;;;2.83;73.38;102335.22;4991949;28;20050;-61
2021/12/19 09:26:34;;;;;;;37.92;23.63;;;;;;;2.81;73.49;102330.03;4991834;28;20038;-58
2021/12/19 09:29:00;;;;;;;26.13;18.45;;;;;;;2.90;73.10;102326.59;4992006;28;20050;-60
2021/12/19 09:31:29;;;;;;;93.00;51.10;;;;;;;2.92;72.87;102327.44;4992406;28;20038;-58
2021/12/19 09:33:56;;;;;;;46.65;28.63;;;;;;;2.93;73.15;102327.47;4992114;28;20414;-59
2021/12/19 09:36:24;;;;;;;64.10;34.50;;;;;;;2.94;73.17;102323.13;5004724;28;20583;-61
2021/12/19 09:38:51;;;;;;;69.03;38.67;;;;;;;2.95;73.19;102322.28;5003811;28;20490;-60
2021/12/19 09:41:28;;;;;;;112.47;59.22;;;;;;;2.92;73.10;102319.66;5007906;28;20053;-60
2021/12/19 09:43:58;;;;;;;64.40;33.30;;;;;;;2.94;72.98;102311.00;5005589;28;20038;-58
2021/12/19 09:46:31;;;;;;;45.75;25.17;;;;;;;2.96;72.79;102315.34;5008621;28;20046;-58
2021/12/19 09:48:58;;;;;;;78.07;43.90;;;;;;;2.96;73.00;102308.44;4999424;28;20045;-61
2021/12/19 09:51:25;;;;;;;34.47;20.80;;;;;;;3.03;72.97;102304.13;4991413;28;20046;-58
2021/12/19 09:53:52;;;;;;;46.40;27.02;;;;;;;3.00;72.69;102296.34;4991219;28;20054;-58
2021/12/19 09:56:19;;;;;;;45.75;26.13;;;;;;;2.90;72.64;102303.25;4991530;28;20042;-58
2021/12/19 09:58:48;;;;;;;29.65;18.33;;;;;;;2.95;72.72;102309.31;4996010;28;20056;-58
2021/12/19 10:01:14;;;;;;;52.35;31.63;;;;;;;3.04;72.51;102300.66;5004396;28;20045;-57
2021/12/19 10:03:41;;;;;;;39.63;24.35;;;;;;;2.96;72.71;102294.59;4995220;28;20046;-61
2021/12/19 10:06:19;;;;;;;37.40;23.33;;;;;;;3.01;72.48;102290.28;4990854;28;20046;-60
2021/12/19 10:08:49;;;;;;;38.72;22.80;;;;;;;2.99;72.71;102290.28;4991254;28;20491;-61
2021/12/19 10:12:12;;;;;;;33.47;20.98;;;;;;;3.00;72.51;102280.78;4991120;28;20046;-61
2021/12/19 10:14:39;;;;;;;31.55;19.95;;;;;;;3.02;72.42;102272.16;4990558;28;20054;-59
2021/12/19 10:17:15;;;;;;;29.48;18.33;;;;;;;3.03;72.51;102279.03;4990970;28;20514;-61
2021/12/19 10:19:50;;;;;;;34.30;21.55;;;;;;;3.07;72.29;102272.13;4996283;28;20494;-60
2021/12/19 10:22:33;;;;;;;54.58;34.60;;;;;;;3.09;72.18;102255.69;4997701;28;20053;-60
2021/12/19 10:25:09;;;;;;;61.55;35.40;;;;;;;3.10;71.93;102243.59;5002910;28;20065;-60
2021/12/19 10:27:46;;;;;;;38.67;23.83;;;;;;;3.05;72.24;102248.78;4990954;28;20406;-61
2021/12/19 10:30:31;;;;;;;84.03;52.10;;;;;;;3.09;72.34;102247.91;4979738;28;20105;-61
2021/12/19 10:33:14;;;;;;;49.10;28.77;;;;;;;3.04;72.60;102239.28;5008089;28;20050;-60
2021/12/19 10:35:50;;;;;;;36.38;20.02;;;;;;;3.05;72.27;102224.59;5008741;28;20064;-63
2021/12/19 10:38:18;;;;;;;;;;;;;;;3.04;72.71;102217.69;5006453;28;20042;-60
2021/12/19 10:41:03;;;;;;;34.75;21.00;;;;;;;3.08;72.62;102219.41;4989666;28;19932;-60
2021/12/19 10:43:32;;;;;;;67.68;35.40;;;;;;;3.21;72.13;102212.44;4991825;28;20046;-61
2021/12/19 10:46:01;;;;;;;75.95;42.10;;;;;;;3.25;72.41;102217.63;4990272;28;20054;-62
2021/12/19 10:48:32;;;;;;;55.60;34.67;;;;;;;3.10;72.93;102204.72;4990427;28;20569;-62
2021/12/19 10:51:32;;;;;;;36.80;22.23;;;;;;;3.13;72.69;102203.84;4989966;28;20667;-62
2021/12/19 10:54:03;;;;;;;67.45;37.85;;;;;;;3.04;73.06;102207.31;4979098;28;20129;-62
2021/12/19 10:56:32;;;;;;;33.28;22.77;;;;;;;3.08;73.10;102201.25;4988967;28;20038;-62
2021/12/19 10:59:08;;;;;;;45.58;30.25;;;;;;;3.11;73.18;102185.66;4990003;28;20487;-62
2021/12/19 11:01:36;;;;;;;;;;;;;;;3.23;73.07;102174.41;4990517;28;20128;-62
2021/12/19 11:04:10;;;;;;;44.13;26.75;;;;;;;3.21;73.16;102164.03;4990015;28;19922;-62
2021/12/19 11:06:42;;;;;;;79.50;40.50;;;;;;;3.26;72.60;102169.19;4990143;28;20491;-63
2021/12/19 11:09:11;;;;;;;102.43;48.47;;;;;;;3.21;73.19;102160.56;4997888;28;20042;-60
2021/12/19 11:11:41;;;;;;;48.22;30.42;;;;;;;3.31;73.02;102162.25;4989080;28;20205;-63
2021/12/19 11:14:11;;;;;;;47.03;26.50;;;;;;;3.39;72.81;102152.72;4989349;28;20046;-63
2021/12/19 11:16:38;;;;;;;31.33;19.60;;;;;;;3.35;72.95;102150.16;4990073;28;20100;-60
2021/12/19 11:19:05;;;;;;;41.38;25.30;;;;;;;3.36;72.81;102152.72;4989688;28;20081;-60
2021/12/19 11:21:34;;;;;;;40.67;25.80;;;;;;;3.35;73.13;102130.28;4976609;28;20415;-60
2021/12/19 11:24:17;;;;;;;66.38;35.88;;;;;;;3.37;73.25;102130.25;4989944;28;20403;-65
2021/12/19 11:26:46;;;;;;;60.85;39.78;;;;;;;3.27;73.16;102125.09;4989898;28;20051;-59
2021/12/19 11:29:13;;;;;;;60.55;34.88;;;;;;;3.35;73.50;102117.31;4988928;28;20046;-60
2021/12/19 11:31:45;;;;;;;58.20;32.45;;;;;;;3.37;73.62;102117.28;4989400;28;20422;-62
2021/12/19 11:34:40;;;;;;;54.70;31.35;;;;;;;3.32;73.95;102121.63;4989714;28;20046;-59
2021/12/19 11:37:07;;;;;;;57.38;31.05;;;;;;;3.34;73.73;102104.31;4989353;28;20054;-59
2021/12/19 11:39:40;;;;;;;45.17;26.13;;;;;;;3.40;73.83;102114.66;4989548;28;20503;-59
2021/12/19 11:42:18;;;;;;;67.45;35.08;;;;;;;3.40;73.41;102105.16;4990243;28;20058;-61
2021/12/19 11:45:35;;;;;;;44.60;27.20;;;;;;;3.41;73.64;102103.41;5003764;28;20054;-61
2021/12/19 11:47:41;;;;;;;50.00;28.98;;;;;;;3.32;73.85;102087.91;4984042;28;20050;-62
2021/12/19 11:50:21;;;;;;;81.28;45.50;;;;;;;3.32;73.89;102083.56;4989396;28;20049;-59
2021/12/19 11:52:50;;;;;;;71.97;38.95;;;;;;;3.32;74.20;102082.72;4989021;28;20046;-59
2021/12/19 11:55:23;;;;;;;43.70;24.65;;;;;;;3.36;74.00;102076.63;4989211;28;20602;-67
2021/12/19 11:58:13;;;;;;;68.90;38.50;;;;;;;3.30;74.16;102081.84;4989218;28;20481;-61
2021/12/19 12:00:43;;;;;;;64.00;41.20;;;;;;;3.25;74.29;102079.25;4988474;28;20053;-62
2021/12/19 12:03:13;;;;;;;48.97;33.83;;;;;;;3.26;74.31;102074.09;4989083;28;20046;-59
2021/12/19 12:05:45;;;;;;;48.42;31.02;;;;;;;3.26;74.72;102074.09;4988638;28;20054;-59
2021/12/19 12:08:14;;;;;;;44.38;27.20;;;;;;;3.38;74.29;102067.13;4989100;28;20101;-62
2021/12/19 12:10:47;;;;;;;43.45;24.80;;;;;;;3.34;74.19;102065.38;4989329;28;20042;-60
2021/12/19 12:13:31;;;;;;;52.78;30.13;;;;;;;3.40;74.18;102062.75;4989475;28;20061;-60
2021/12/19 12:16:28;;;;;;;52.15;30.90;;;;;;;3.49;74.00;102059.25;4987845;28;20487;-59
2021/12/19 12:19:00;;;;;;;50.42;31.38;;;;;;;3.55;73.93;102057.47;4971553;28;20041;-60
2021/12/19 12:24:06;;;;;;;81.65;41.42;;;;;;;3.45;74.09;102036.81;5007932;28;20042;-61
2021/12/19 12:26:42;;;;;;;39.00;23.35;;;;;;;3.54;74.13;102036.75;5002285;28;20046;-60
2021/12/19 12:29:10;;;;;;;54.25;36.45;;;;;;;3.56;74.06;102037.59;4993013;28;20051;-60
2021/12/19 12:31:40;;;;;;;35.22;23.75;;;;;;;3.62;74.07;102034.09;4992766;28;20057;-60
2021/12/19 12:34:10;;;;;;;45.58;27.70;;;;;;;3.54;74.19;102036.75;5001357;28;20045;-60
2021/12/19 12:36:38;;;;;;;37.97;22.48;;;;;;;3.57;73.98;102031.53;4994058;28;20057;-59